createdAt,value
2023-05-14T00:01:18.626Z,102046.02
2023-05-14T00:03:48.162Z,102041.06
2023-05-14T00:06:17.764Z,102043.23
2023-05-14T00:08:47.616Z,102047.78
2023-05-14T00:11:17.534Z,102035.48
2023-05-14T00:13:46.953Z,102040.03
2023-05-14T00:16:16.660Z,102033.09
2023-05-14T00:18:46.245Z,102034.28
2023-05-14T00:21:15.802Z,102032.50
2023-05-14T00:23:45.167Z,102030.91
2023-05-14T00:26:14.541Z,102024.52
2023-05-14T00:28:45.743Z,102029.11
2023-05-14T00:31:15.655Z,102030.20
2023-05-14T00:33:44.948Z,102027.80
2023-05-14T00:36:14.240Z,102030.08
2023-05-14T00:38:43.620Z,102025.04
2023-05-14T00:41:13.490Z,102018.55
2023-05-14T00:43:43.049Z,102023.83
2023-05-14T00:46:13.128Z,102016.66
2023-05-14T00:48:42.584Z,102015.17
2023-05-14T00:51:11.975Z,102013.72
2023-05-14T00:53:41.718Z,102011.08
2023-05-14T00:56:11.142Z,102015.89
2023-05-14T00:58:41.159Z,102010.50
2023-05-14T01:01:12.329Z,102011.82
2023-05-14T01:03:42.095Z,102010.56
2023-05-14T01:06:33.287Z,102007.92
2023-05-14T01:09:21.098Z,102008.89
2023-05-14T01:12:08.983Z,102005.04
2023-05-14T01:14:48.093Z,101999.37
2023-05-14T01:17:21.842Z,102000.23
2023-05-14T01:19:52.787Z,101997.81
2023-05-14T01:22:22.072Z,101997.45
2023-05-14T01:24:51.898Z,101998.14
2023-05-14T01:27:39.339Z,101997.81
2023-05-14T01:30:31.153Z,101997.92
2023-05-14T01:33:03.859Z,101999.82
2023-05-14T01:35:33.951Z,102000.16
2023-05-14T01:38:05.972Z,101995.09
2023-05-14T01:40:36.201Z,101992.10
2023-05-14T01:43:06.392Z,101994.74
2023-05-14T01:45:38.422Z,101994.47
2023-05-14T01:48:07.876Z,101988.95
2023-05-14T01:50:37.389Z,101990.38
2023-05-14T01:53:06.982Z,101995.02
2023-05-14T01:55:36.643Z,101998.48
2023-05-14T01:58:06.168Z,101999.53
2023-05-14T02:00:35.837Z,102002.06
2023-05-14T02:03:05.494Z,101997.17
2023-05-14T02:05:34.964Z,101994.89
2023-05-14T02:08:04.329Z,101991.92
2023-05-14T02:10:34.449Z,101991.28
2023-05-14T02:13:04.661Z,101993.57
2023-05-14T02:15:34.236Z,101998.48
2023-05-14T02:18:03.753Z,101992.41
2023-05-14T02:20:33.378Z,101993.73
2023-05-14T02:23:02.655Z,101991.70
2023-05-14T02:25:31.952Z,101988.38
2023-05-14T02:28:01.225Z,101985.63
2023-05-14T02:30:31.530Z,101987.00
2023-05-14T02:33:01.314Z,101987.22
2023-05-14T02:35:30.769Z,101980.20
2023-05-14T02:38:01.112Z,101976.25
2023-05-14T02:40:30.538Z,101977.35
2023-05-14T02:42:59.805Z,101968.83
2023-05-14T02:45:29.318Z,101966.14
2023-05-14T02:47:58.666Z,101966.05
2023-05-14T02:50:28.109Z,101968.22
2023-05-14T02:52:57.499Z,101968.22
2023-05-14T02:55:26.910Z,101964.55
2023-05-14T02:57:56.895Z,101969.72
2023-05-14T03:00:26.849Z,101965.55
2023-05-14T03:02:56.729Z,101963.88
2023-05-14T03:05:26.568Z,101961.42
2023-05-14T03:07:55.862Z,101963.28
2023-05-14T03:10:25.567Z,101963.70
2023-05-14T03:12:55.244Z,101962.25
2023-05-14T03:15:24.629Z,101963.56
2023-05-14T03:17:54.071Z,101955.98
2023-05-14T03:20:26.239Z,101972.11
2023-05-14T03:22:56.175Z,101967.69
2023-05-14T03:25:26.577Z,101971.16
2023-05-14T03:27:56.017Z,101959.67
2023-05-14T03:30:25.634Z,101952.34
2023-05-14T03:32:55.467Z,101940.30
2023-05-14T03:35:24.906Z,101946.89
2023-05-14T03:37:54.399Z,101940.84
2023-05-14T03:40:24.010Z,101951.13
2023-05-14T03:42:54.265Z,101940.94
2023-05-14T03:45:23.994Z,101939.48
2023-05-14T03:47:53.535Z,101943.43
2023-05-14T03:50:25.317Z,101934.98
2023-05-14T03:52:55.475Z,101940.05
2023-05-14T03:55:24.881Z,101937.06
2023-05-14T03:57:54.173Z,101931.94
2023-05-14T04:00:24.079Z,101935.88
2023-05-14T04:02:54.627Z,101932.89
2023-05-14T04:05:25.098Z,101938.37
2023-05-14T04:07:57.771Z,101937.84
2023-05-14T04:10:27.470Z,101940.16
2023-05-14T04:12:57.026Z,101939.38
2023-05-14T04:15:28.477Z,101934.53
2023-05-14T04:17:58.148Z,101938.06
2023-05-14T04:20:27.639Z,101937.95
2023-05-14T04:22:57.393Z,101940.38
2023-05-14T04:25:26.769Z,101939.95
2023-05-14T04:27:56.400Z,101934.31
2023-05-14T04:30:26.501Z,101938.27
2023-05-14T04:32:55.840Z,101931.57
2023-05-14T04:35:25.383Z,101930.61
2023-05-14T04:37:54.687Z,101928.19
2023-05-14T04:40:24.976Z,101934.31
2023-05-14T04:42:54.477Z,101932.29
2023-05-14T04:45:24.090Z,101933.61
2023-05-14T04:47:53.412Z,101933.03
2023-05-14T04:50:23.170Z,101934.48
2023-05-14T04:52:52.748Z,101937.88
2023-05-14T04:55:22.301Z,101933.34
2023-05-14T04:57:51.646Z,101935.00
2023-05-14T05:00:22.331Z,101936.81
2023-05-14T05:02:52.386Z,101942.59
2023-05-14T05:05:22.404Z,101939.98
2023-05-14T05:07:51.706Z,101940.06
2023-05-14T05:10:21.660Z,101937.56
2023-05-14T05:12:51.581Z,101935.61
2023-05-14T05:15:21.274Z,101941.03
2023-05-14T05:17:51.036Z,101945.05
2023-05-14T05:20:20.922Z,101945.40
2023-05-14T05:22:50.280Z,101945.52
2023-05-14T05:25:19.645Z,101941.80
2023-05-14T05:27:48.948Z,101950.30
2023-05-14T05:30:18.656Z,101942.42
2023-05-14T05:32:48.316Z,101945.65
2023-05-14T05:35:17.753Z,101946.97
2023-05-14T05:37:47.055Z,101954.38
2023-05-14T05:40:17.206Z,101948.45
2023-05-14T05:42:46.581Z,101946.95
2023-05-14T05:45:16.120Z,101957.41
2023-05-14T05:47:45.877Z,101953.33
2023-05-14T05:50:15.619Z,101954.83
2023-05-14T05:52:45.479Z,101959.55
2023-05-14T05:55:15.237Z,101958.55
2023-05-14T05:57:44.641Z,101960.52
2023-05-14T06:00:15.157Z,101957.00
2023-05-14T06:02:44.814Z,101957.93
2023-05-14T06:05:14.445Z,101962.30
2023-05-14T06:07:43.875Z,101958.96
2023-05-14T06:10:13.413Z,101957.17
2023-05-14T06:12:42.875Z,101959.58
2023-05-14T06:15:14.039Z,101963.86
2023-05-14T06:17:43.439Z,101964.44
2023-05-14T06:20:13.660Z,101957.72
2023-05-14T06:22:43.039Z,101961.77
2023-05-14T06:25:13.055Z,101957.74
2023-05-14T06:27:43.084Z,101962.73
2023-05-14T06:30:13.312Z,101969.13
2023-05-14T06:32:43.153Z,101975.00
2023-05-14T06:35:12.502Z,101969.69
2023-05-14T06:37:41.810Z,101972.85
2023-05-14T06:40:11.476Z,101973.80
2023-05-14T06:42:41.012Z,101975.38
2023-05-14T06:45:11.618Z,101980.05
2023-05-14T06:47:41.503Z,101973.31
2023-05-14T06:50:11.682Z,101982.91
2023-05-14T06:52:41.068Z,101977.77
2023-05-14T06:55:10.750Z,101984.16
2023-05-14T06:57:40.870Z,101984.86
2023-05-14T07:00:11.988Z,101983.78
2023-05-14T07:02:41.475Z,101985.59
2023-05-14T07:05:12.398Z,101987.17
2023-05-14T07:07:41.992Z,101991.84
2023-05-14T07:10:12.742Z,101984.98
2023-05-14T07:12:42.493Z,101992.22
2023-05-14T07:15:12.818Z,101984.39
2023-05-14T07:17:42.594Z,101992.07
2023-05-14T07:20:12.550Z,101988.30
2023-05-14T07:22:42.168Z,101993.73
2023-05-14T07:25:11.814Z,101990.84
2023-05-14T07:27:41.420Z,101994.94
2023-05-14T07:30:11.185Z,101987.44
2023-05-14T07:32:40.974Z,101979.14
2023-05-14T07:35:11.871Z,101986.75
2023-05-14T07:37:41.302Z,101979.69
2023-05-14T07:40:11.318Z,101994.35
2023-05-14T07:42:40.881Z,101984.64
2023-05-14T07:45:10.897Z,101984.86
2023-05-14T07:47:41.230Z,101973.97
2023-05-14T07:50:11.695Z,101983.23
2023-05-14T07:52:40.985Z,101977.20
2023-05-14T07:55:11.616Z,101967.81
2023-05-14T07:57:41.034Z,101970.30
2023-05-14T08:00:11.254Z,101971.56
2023-05-14T08:02:44.118Z,101977.27
2023-05-14T08:05:14.144Z,101974.28
2023-05-14T08:07:43.518Z,101965.86
2023-05-14T08:10:13.180Z,101967.38
2023-05-14T08:12:42.962Z,101974.25
2023-05-14T08:15:14.087Z,101968.11
2023-05-14T08:17:43.747Z,101976.73
2023-05-14T08:20:13.657Z,101980.45
2023-05-14T08:22:42.950Z,101974.61
2023-05-14T08:25:12.543Z,101969.34
2023-05-14T08:27:41.826Z,101971.00
2023-05-14T08:30:12.004Z,101960.66
2023-05-14T08:32:42.518Z,101970.78
2023-05-14T08:35:12.079Z,101960.92
2023-05-14T08:37:41.411Z,101971.65
2023-05-14T08:40:11.420Z,101970.31
2023-05-14T08:42:45.134Z,101964.63
2023-05-14T08:45:22.238Z,101970.09
2023-05-14T08:47:52.383Z,101971.28
2023-05-14T08:50:23.535Z,101967.52
2023-05-14T08:52:53.867Z,101960.68
2023-05-14T08:55:23.792Z,101955.35
2023-05-14T08:57:53.083Z,101961.84
2023-05-14T09:00:23.459Z,101966.56
2023-05-14T09:02:53.814Z,101959.33
2023-05-14T09:05:23.687Z,101950.03
2023-05-14T09:07:53.236Z,101950.03
2023-05-14T09:10:22.935Z,101948.36
2023-05-14T09:12:52.804Z,101943.16
2023-05-14T09:15:22.110Z,101944.00
2023-05-14T09:17:53.217Z,101941.80
2023-05-14T09:20:23.504Z,101945.48
2023-05-14T09:22:55.028Z,101937.44
2023-05-14T09:25:27.786Z,101941.06
2023-05-14T09:27:59.054Z,101930.81
2023-05-14T09:30:29.376Z,101923.14
2023-05-14T09:32:58.721Z,101927.14
2023-05-14T09:35:28.345Z,101930.72
2023-05-14T09:37:57.659Z,101931.02
2023-05-14T09:40:27.594Z,101933.09
2023-05-14T09:42:57.279Z,101932.63
2023-05-14T09:45:26.776Z,101932.87
2023-05-14T09:47:56.257Z,101929.60
2023-05-14T09:50:26.858Z,101923.54
2023-05-14T09:52:57.076Z,101918.08
2023-05-14T09:55:27.274Z,101918.84
2023-05-14T09:57:56.924Z,101918.18
2023-05-14T10:00:26.961Z,101924.14
2023-05-14T10:02:56.755Z,101919.81
2023-05-14T10:05:27.365Z,101919.92
2023-05-14T10:07:58.174Z,101925.14
2023-05-14T10:10:30.230Z,101922.66
2023-05-14T10:13:03.717Z,101919.20
2023-05-14T10:15:38.415Z,101909.47
2023-05-14T10:18:13.810Z,101916.02
2023-05-14T10:20:43.728Z,101903.97
2023-05-14T10:23:13.396Z,101905.85
2023-05-14T10:25:43.828Z,101902.91
2023-05-14T10:28:13.194Z,101907.41
2023-05-14T10:30:47.158Z,101900.62
2023-05-14T10:33:18.959Z,101898.42
2023-05-14T10:35:55.464Z,101898.33
2023-05-14T10:38:30.197Z,101891.58
2023-05-14T10:41:04.742Z,101895.23
2023-05-14T10:43:37.519Z,101892.75
2023-05-14T10:46:07.723Z,101891.55
2023-05-14T10:48:38.916Z,101893.94
2023-05-14T10:51:10.230Z,101885.82
2023-05-14T10:53:42.521Z,101885.82
2023-05-14T10:56:13.730Z,101884.55
2023-05-14T10:58:46.647Z,101880.15
2023-05-14T11:01:16.178Z,101878.75
2023-05-14T11:03:47.304Z,101877.34
2023-05-14T11:06:17.336Z,101877.94
2023-05-14T11:08:47.253Z,101868.11
2023-05-14T11:11:18.208Z,101869.21
2023-05-14T11:13:48.310Z,101861.23
2023-05-14T11:16:23.180Z,101863.16
2023-05-14T11:18:55.034Z,101866.52
2023-05-14T11:21:24.415Z,101852.43
2023-05-14T11:23:55.932Z,101860.98
2023-05-14T11:26:26.025Z,101858.77
2023-05-14T11:28:55.479Z,101859.26
2023-05-14T11:31:25.221Z,101848.86
2023-05-14T11:33:54.863Z,101849.38
2023-05-14T11:36:24.141Z,101844.28
2023-05-14T11:38:53.541Z,101843.05
2023-05-14T11:41:23.340Z,101843.95
2023-05-14T11:43:53.032Z,101838.64
2023-05-14T11:46:22.433Z,101835.77
2023-05-14T11:48:52.419Z,101830.37
2023-05-14T11:51:23.444Z,101824.98
2023-05-14T11:53:52.842Z,101827.00
2023-05-14T11:56:23.010Z,101826.20
2023-05-14T11:58:58.219Z,101829.91
2023-05-14T12:01:28.985Z,101826.92
2023-05-14T12:03:58.473Z,101829.23
2023-05-14T12:06:32.839Z,101829.95
2023-05-14T12:09:02.162Z,101824.28
2023-05-14T12:11:37.068Z,101817.69
2023-05-14T12:14:23.689Z,101818.53
2023-05-14T12:16:52.968Z,101811.36
2023-05-14T12:19:23.516Z,101815.56
2023-05-14T12:21:52.984Z,101804.42
2023-05-14T12:24:22.307Z,101806.39
2023-05-14T12:26:52.719Z,101804.09
2023-05-14T12:29:22.820Z,101802.14
2023-05-14T12:31:52.354Z,101800.25
2023-05-14T12:34:21.754Z,101794.98
2023-05-14T12:36:51.547Z,101793.45
2023-05-14T12:39:21.132Z,101790.98
2023-05-14T12:41:50.417Z,101792.59
2023-05-14T12:44:19.883Z,101798.29
2023-05-14T12:46:49.423Z,101794.66
2023-05-14T12:49:19.694Z,101787.05
2023-05-14T12:51:51.172Z,101791.81
2023-05-14T12:54:20.189Z,101782.98
2023-05-14T12:56:49.782Z,101778.50
2023-05-14T12:59:19.106Z,101777.88
2023-05-14T13:01:48.736Z,101773.75
2023-05-14T13:04:18.049Z,101768.63
2023-05-14T13:06:47.951Z,101769.05
2023-05-14T13:09:17.266Z,101763.76
2023-05-14T13:11:47.289Z,101756.97
2023-05-14T13:14:17.382Z,101756.96
2023-05-14T13:16:48.511Z,101760.03
2023-05-14T13:19:17.839Z,101756.83
2023-05-14T13:21:47.429Z,101753.87
2023-05-14T13:24:17.500Z,101756.47
2023-05-14T13:26:47.033Z,101750.39
2023-05-14T13:29:16.347Z,101749.00
2023-05-14T13:31:45.835Z,101758.81
2023-05-14T13:34:15.114Z,101753.59
2023-05-14T13:36:44.688Z,101748.15
2023-05-14T13:39:14.636Z,101740.33
2023-05-14T13:41:44.457Z,101737.89
2023-05-14T13:44:13.733Z,101735.07
2023-05-14T13:46:43.725Z,101736.30
2023-05-14T13:49:13.228Z,101729.95
2023-05-14T13:51:42.714Z,101725.13
2023-05-14T13:54:12.007Z,101725.26
2023-05-14T13:56:42.256Z,101719.33
2023-05-14T13:59:11.600Z,101719.91
2023-05-14T14:01:42.636Z,101722.11
2023-05-14T14:04:12.040Z,101722.78
2023-05-14T14:06:41.515Z,101717.09
2023-05-14T14:09:10.977Z,101709.38
2023-05-14T14:11:41.296Z,101714.68
2023-05-14T14:14:10.714Z,101714.77
2023-05-14T14:16:40.751Z,101712.20
2023-05-14T14:19:10.574Z,101703.54
2023-05-14T14:21:41.801Z,101701.74
2023-05-14T14:24:11.201Z,101696.31
2023-05-14T14:26:40.627Z,101699.02
2023-05-14T14:29:10.151Z,101702.11
2023-05-14T14:31:39.544Z,101697.42
2023-05-14T14:34:08.889Z,101694.22
2023-05-14T14:36:38.209Z,101697.62
2023-05-14T14:39:07.580Z,101696.27
2023-05-14T14:41:37.370Z,101696.50
2023-05-14T14:44:06.750Z,101692.61
2023-05-14T14:46:36.155Z,101690.59
2023-05-14T14:49:05.837Z,101695.89
2023-05-14T14:51:35.175Z,101692.80
2023-05-14T14:54:06.402Z,101692.81
2023-05-14T14:56:35.652Z,101694.20
2023-05-14T14:59:04.983Z,101685.78
2023-05-14T15:01:34.514Z,101688.47
2023-05-14T15:04:04.480Z,101689.69
2023-05-14T15:06:33.812Z,101686.10
2023-05-14T15:09:03.184Z,101683.22
2023-05-14T15:11:32.481Z,101679.73
2023-05-14T15:14:01.817Z,101680.95
2023-05-14T15:16:31.118Z,101683.87
2023-05-14T15:19:00.539Z,101684.78
2023-05-14T15:21:29.924Z,101684.37
2023-05-14T15:23:59.217Z,101687.44
2023-05-14T15:26:28.576Z,101676.84
2023-05-14T15:28:59.201Z,101680.27
2023-05-14T15:31:29.038Z,101680.34
2023-05-14T15:33:58.401Z,101685.63
2023-05-14T15:36:28.587Z,101685.86
2023-05-14T15:38:58.111Z,101682.78
2023-05-14T15:41:29.006Z,101685.28
2023-05-14T15:43:58.854Z,101688.58
2023-05-14T15:46:28.286Z,101679.11
2023-05-14T15:48:58.458Z,101681.81
2023-05-14T15:51:27.830Z,101684.45
2023-05-14T15:53:57.565Z,101670.77
2023-05-14T15:56:27.353Z,101685.63
2023-05-14T15:58:56.668Z,101679.17
2023-05-14T16:01:26.188Z,101676.27
2023-05-14T16:03:55.723Z,101680.42
2023-05-14T16:06:25.145Z,101684.43
2023-05-14T16:08:56.115Z,101686.26
2023-05-14T16:11:25.490Z,101683.78
2023-05-14T16:13:56.631Z,101690.05
2023-05-14T16:16:26.137Z,101695.25
2023-05-14T16:18:55.581Z,101688.13
2023-05-14T16:21:24.898Z,101689.69
2023-05-14T16:23:54.264Z,101684.58
2023-05-14T16:26:23.556Z,101688.30
2023-05-14T16:28:53.271Z,101688.50
2023-05-14T16:31:22.641Z,101689.88
2023-05-14T16:33:52.443Z,101685.89
2023-05-14T16:36:22.003Z,101679.55
2023-05-14T16:39:06.833Z,101690.77
2023-05-14T16:41:22.317Z,101688.69
2023-05-14T16:43:52.515Z,101683.42
2023-05-14T16:46:22.083Z,101686.10
2023-05-14T16:48:51.948Z,101684.95
2023-05-14T16:51:21.656Z,101686.58
2023-05-14T16:53:52.094Z,101687.25
2023-05-14T16:56:22.357Z,101691.50
2023-05-14T16:58:51.670Z,101691.14
2023-05-14T17:01:21.458Z,101699.06
2023-05-14T17:03:50.753Z,101708.33
2023-05-14T17:06:20.538Z,101701.12
2023-05-14T17:08:49.876Z,101699.79
2023-05-14T17:11:19.189Z,101696.99
2023-05-14T17:13:48.468Z,101702.30
2023-05-14T17:16:18.299Z,101710.39
2023-05-14T17:18:47.674Z,101704.20
2023-05-14T17:21:17.013Z,101705.23
2023-05-14T17:23:46.442Z,101709.36
2023-05-14T17:26:16.061Z,101706.13
2023-05-14T17:28:45.432Z,101711.40
2023-05-14T17:31:15.039Z,101709.97
2023-05-14T17:33:45.783Z,101709.05
2023-05-14T17:36:15.180Z,101706.83
2023-05-14T17:38:44.772Z,101705.38
2023-05-14T17:41:14.097Z,101705.30
2023-05-14T17:43:43.853Z,101707.12
2023-05-14T17:46:13.250Z,101706.81
2023-05-14T17:48:43.239Z,101707.70
2023-05-14T17:51:12.569Z,101706.27
2023-05-14T17:53:42.221Z,101702.74
2023-05-14T17:56:11.490Z,101714.81
2023-05-14T17:58:41.366Z,101719.34
2023-05-14T18:01:10.707Z,101717.94
2023-05-14T18:03:40.443Z,101721.04
2023-05-14T18:06:09.882Z,101726.70
2023-05-14T18:08:39.196Z,101723.80
2023-05-14T18:11:08.801Z,101727.22
2023-05-14T18:13:38.300Z,101735.31
2023-05-14T18:16:07.925Z,101738.23
2023-05-14T18:18:37.514Z,101735.06
2023-05-14T18:21:07.265Z,101734.80
2023-05-14T18:23:37.103Z,101736.48
2023-05-14T18:26:06.756Z,101727.16
2023-05-14T18:28:37.246Z,101728.20
2023-05-14T18:31:06.741Z,101730.73
2023-05-14T18:33:36.499Z,101727.08
2023-05-14T18:36:06.757Z,101726.89
2023-05-14T18:38:36.437Z,101726.70
2023-05-14T18:41:06.091Z,101721.47
2023-05-14T18:43:35.746Z,101729.73
2023-05-14T18:46:05.508Z,101729.73
2023-05-14T18:48:34.986Z,101727.02
2023-05-14T18:51:05.879Z,101728.72
2023-05-14T18:53:35.214Z,101729.58
2023-05-14T18:56:04.986Z,101724.17
2023-05-14T18:58:34.371Z,101729.85
2023-05-14T19:01:03.833Z,101731.94
2023-05-14T19:03:33.885Z,101735.91
2023-05-14T19:06:03.428Z,101741.45
2023-05-14T19:08:33.000Z,101741.20
2023-05-14T19:11:02.852Z,101737.57
2023-05-14T19:13:32.258Z,101739.23
2023-05-14T19:16:02.317Z,101745.28
2023-05-14T19:18:32.217Z,101743.52
2023-05-14T19:21:01.631Z,101738.25
2023-05-14T19:23:32.673Z,101741.02
2023-05-14T19:26:02.501Z,101744.98
2023-05-14T19:28:31.793Z,101750.05
2023-05-14T19:31:01.301Z,101747.02
2023-05-14T19:33:31.391Z,101744.63
2023-05-14T19:36:00.803Z,101738.27
2023-05-14T19:38:30.445Z,101748.00
2023-05-14T19:41:00.201Z,101741.14
2023-05-14T19:43:29.517Z,101739.70
2023-05-14T19:46:01.355Z,101740.80
2023-05-14T19:48:31.357Z,101744.03
2023-05-14T19:51:01.134Z,101738.98
2023-05-14T19:53:30.623Z,101739.00
2023-05-14T19:56:02.029Z,101743.33
2023-05-14T19:58:31.382Z,101749.81
2023-05-14T20:01:01.149Z,101752.21
2023-05-14T20:03:30.803Z,101755.34
2023-05-14T20:06:00.282Z,101760.62
2023-05-14T20:08:29.788Z,101758.20
2023-05-14T20:10:59.171Z,101758.95
2023-05-14T20:13:30.089Z,101754.12
2023-05-14T20:16:01.011Z,101760.38
2023-05-14T20:18:30.401Z,101757.95
2023-05-14T20:21:00.189Z,101751.49
2023-05-14T20:23:29.568Z,101746.80
2023-05-14T20:26:00.942Z,101752.44
2023-05-14T20:28:30.630Z,101745.11
2023-05-14T20:31:01.176Z,101745.61
2023-05-14T20:33:31.299Z,101741.64
2023-05-14T20:36:02.299Z,101741.73
2023-05-14T20:38:32.903Z,101731.67
2023-05-14T20:41:02.410Z,101732.76
2023-05-14T20:43:31.848Z,101729.39
2023-05-14T20:46:01.240Z,101732.24
2023-05-14T20:48:30.642Z,101728.63
2023-05-14T20:51:00.042Z,101725.03
2023-05-14T20:53:31.446Z,101729.57
2023-05-14T20:56:01.328Z,101724.20
2023-05-14T20:58:31.617Z,101722.74
2023-05-14T21:01:01.060Z,101722.63
2023-05-14T21:03:30.623Z,101724.18
2023-05-14T21:06:00.858Z,101722.27
2023-05-14T21:08:32.800Z,101722.16
2023-05-14T21:11:02.093Z,101722.74
2023-05-14T21:13:31.655Z,101724.41
2023-05-14T21:16:01.056Z,101724.30
2023-05-14T21:18:32.246Z,101724.61
2023-05-14T21:21:01.757Z,101725.23
2023-05-14T21:23:31.552Z,101720.19
2023-05-14T21:26:00.903Z,101722.20
2023-05-14T21:28:30.629Z,101726.66
2023-05-14T21:30:59.932Z,101722.94
2023-05-14T21:33:29.436Z,101718.59
2023-05-14T21:35:58.737Z,101721.00
2023-05-14T21:38:28.992Z,101716.77
2023-05-14T21:40:58.605Z,101715.41
2023-05-14T21:43:28.387Z,101714.20
2023-05-14T21:45:58.177Z,101709.66
2023-05-14T21:48:28.287Z,101709.16
2023-05-14T21:50:57.959Z,101699.85
2023-05-14T21:53:27.651Z,101704.97
2023-05-14T21:55:56.965Z,101701.13
2023-05-14T21:58:26.477Z,101702.91
2023-05-14T22:00:55.788Z,101701.78
2023-05-14T22:03:25.201Z,101700.31
2023-05-14T22:05:54.625Z,101698.80
2023-05-14T22:08:24.471Z,101694.34
2023-05-14T22:10:53.965Z,101694.66
2023-05-14T22:13:23.453Z,101693.45
2023-05-14T22:16:01.411Z,101692.09
2023-05-14T22:18:24.602Z,101698.95
2023-05-14T22:20:54.017Z,101688.95
2023-05-14T22:23:23.319Z,101694.33
2023-05-14T22:25:52.618Z,101692.14
2023-05-14T22:28:21.911Z,101695.70
2023-05-14T22:30:51.211Z,101688.30
2023-05-14T22:33:20.505Z,101690.08
2023-05-14T22:35:50.620Z,101686.71
2023-05-14T22:38:20.344Z,101686.42
2023-05-14T22:40:49.968Z,101681.53
2023-05-14T22:43:19.336Z,101680.16
2023-05-14T22:45:48.723Z,101677.13
2023-05-14T22:48:18.027Z,101676.48
2023-05-14T22:50:47.490Z,101665.47
2023-05-14T22:53:16.787Z,101670.84
2023-05-14T22:55:46.230Z,101665.17
2023-05-14T22:58:15.548Z,101660.25
2023-05-14T23:00:45.102Z,101655.97
2023-05-14T23:03:14.748Z,101662.37
2023-05-14T23:05:44.500Z,101669.91
2023-05-14T23:08:13.803Z,101666.43
2023-05-14T23:10:43.566Z,101664.67
2023-05-14T23:13:12.881Z,101669.03
2023-05-14T23:15:42.794Z,101667.30
2023-05-14T23:18:12.332Z,101667.71
2023-05-14T23:20:42.175Z,101668.45
2023-05-14T23:23:11.803Z,101668.02
2023-05-14T23:25:41.098Z,101666.27
2023-05-14T23:28:10.603Z,101668.70
2023-05-14T23:30:40.490Z,101670.02
2023-05-14T23:33:10.281Z,101668.70
2023-05-14T23:35:40.653Z,101662.61
2023-05-14T23:38:09.948Z,101665.13
2023-05-14T23:40:39.244Z,101657.16
2023-05-14T23:43:08.623Z,101653.67
2023-05-14T23:45:38.369Z,101650.81
2023-05-14T23:48:07.835Z,101649.47
2023-05-14T23:50:38.183Z,101642.78
2023-05-14T23:53:07.966Z,101643.41
2023-05-14T23:55:37.255Z,101639.23
2023-05-14T23:58:06.632Z,101639.92
